sensor_id;sensor_type;location;lat;lon;timestamp;P1;durP1;ratioP1;P2;durP2;ratioP2
14241;SDS011;7205;50.864;12.766;2023-04-24T00:00:37;0.40;;;0.40;;
14241;SDS011;7205;50.864;12.766;2023-04-24T00:03:05;0.40;;;0.40;;
14241;SDS011;7205;50.864;12.766;2023-04-24T00:05:33;0.50;;;0.30;;
14241;SDS011;7205;50.864;12.766;2023-04-24T00:07:59;4.40;;;0.50;;
14241;SDS011;7205;50.864;12.766;2023-04-24T00:10:26;0.40;;;0.40;;
14241;SDS011;7205;50.864;12.766;2023-04-24T00:12:54;0.40;;;0.40;;
14241;SDS011;7205;50.864;12.766;2023-04-24T00:15:21;0.60;;;0.60;;
14241;SDS011;7205;50.864;12.766;2023-04-24T00:17:48;0.60;;;0.60;;
14241;SDS011;7205;50.864;12.766;2023-04-24T00:20:15;0.60;;;0.60;;
14241;SDS011;7205;50.864;12.766;2023-04-24T00:22:44;0.97;;;0.70;;
14241;SDS011;7205;50.864;12.766;2023-04-24T00:25:10;0.40;;;0.40;;
14241;SDS011;7205;50.864;12.766;2023-04-24T00:27:38;0.47;;;0.47;;
14241;SDS011;7205;50.864;12.766;2023-04-24T00:30:09;1.23;;;0.60;;
14241;SDS011;7205;50.864;12.766;2023-04-24T00:32:38;1.80;;;0.73;;
14241;SDS011;7205;50.864;12.766;2023-04-24T00:35:05;0.97;;;0.60;;
14241;SDS011;7205;50.864;12.766;2023-04-24T00:37:33;0.77;;;0.63;;
14241;SDS011;7205;50.864;12.766;2023-04-24T00:40:00;1.60;;;0.70;;
14241;SDS011;7205;50.864;12.766;2023-04-24T00:42:27;1.53;;;0.70;;
14241;SDS011;7205;50.864;12.766;2023-04-24T00:44:54;1.37;;;0.60;;
14241;SDS011;7205;50.864;12.766;2023-04-24T00:47:24;0.60;;;0.60;;
14241;SDS011;7205;50.864;12.766;2023-04-24T00:49:51;0.80;;;0.80;;
14241;SDS011;7205;50.864;12.766;2023-04-24T00:52:18;3.43;;;0.80;;
14241;SDS011;7205;50.864;12.766;2023-04-24T00:54:45;0.63;;;0.63;;
14241;SDS011;7205;50.864;12.766;2023-04-24T00:57:12;0.80;;;0.80;;
14241;SDS011;7205;50.864;12.766;2023-04-24T00:59:41;0.93;;;0.83;;
14241;SDS011;7205;50.864;12.766;2023-04-24T01:02:08;0.73;;;0.73;;
14241;SDS011;7205;50.864;12.766;2023-04-24T01:04:37;1.00;;;0.73;;
14241;SDS011;7205;50.864;12.766;2023-04-24T01:07:06;1.03;;;1.03;;
14241;SDS011;7205;50.864;12.766;2023-04-24T01:09:36;1.33;;;0.87;;
14241;SDS011;7205;50.864;12.766;2023-04-24T01:12:04;0.83;;;0.83;;
14241;SDS011;7205;50.864;12.766;2023-04-24T01:14:31;0.80;;;0.80;;
14241;SDS011;7205;50.864;12.766;2023-04-24T01:16:58;0.70;;;0.70;;
14241;SDS011;7205;50.864;12.766;2023-04-24T01:19:26;1.10;;;0.87;;
14241;SDS011;7205;50.864;12.766;2023-04-24T01:21:55;0.73;;;0.73;;
14241;SDS011;7205;50.864;12.766;2023-04-24T01:24:26;0.77;;;0.70;;
14241;SDS011;7205;50.864;12.766;2023-04-24T01:26:53;1.67;;;0.87;;
14241;SDS011;7205;50.864;12.766;2023-04-24T01:29:20;0.80;;;0.80;;
14241;SDS011;7205;50.864;12.766;2023-04-24T01:31:47;0.73;;;0.73;;
14241;SDS011;7205;50.864;12.766;2023-04-24T01:34:14;0.90;;;0.80;;
14241;SDS011;7205;50.864;12.766;2023-04-24T01:36:42;2.43;;;1.10;;
14241;SDS011;7205;50.864;12.766;2023-04-24T01:39:09;1.03;;;0.90;;
14241;SDS011;7205;50.864;12.766;2023-04-24T01:41:38;0.80;;;0.80;;
14241;SDS011;7205;50.864;12.766;2023-04-24T01:44:04;1.00;;;0.80;;
14241;SDS011;7205;50.864;12.766;2023-04-24T01:46:31;0.90;;;0.80;;
14241;SDS011;7205;50.864;12.766;2023-04-24T01:48:59;1.33;;;0.90;;
14241;SDS011;7205;50.864;12.766;2023-04-24T01:51:26;1.23;;;0.77;;
14241;SDS011;7205;50.864;12.766;2023-04-24T01:53:55;0.70;;;0.70;;
14241;SDS011;7205;50.864;12.766;2023-04-24T01:56:22;0.93;;;0.93;;
14241;SDS011;7205;50.864;12.766;2023-04-24T01:58:51;2.73;;;1.00;;
14241;SDS011;7205;50.864;12.766;2023-04-24T02:01:20;0.83;;;0.83;;
14241;SDS011;7205;50.864;12.766;2023-04-24T02:03:47;0.87;;;0.87;;
14241;SDS011;7205;50.864;12.766;2023-04-24T02:06:14;0.90;;;0.90;;
14241;SDS011;7205;50.864;12.766;2023-04-24T02:08:40;1.17;;;1.17;;
14241;SDS011;7205;50.864;12.766;2023-04-24T02:11:08;0.90;;;0.90;;
14241;SDS011;7205;50.864;12.766;2023-04-24T02:13:35;1.57;;;0.70;;
14241;SDS011;7205;50.864;12.766;2023-04-24T02:16:03;0.93;;;0.90;;
14241;SDS011;7205;50.864;12.766;2023-04-24T02:18:30;1.80;;;1.00;;
14241;SDS011;7205;50.864;12.766;2023-04-24T02:20:57;0.90;;;0.90;;
14241;SDS011;7205;50.864;12.766;2023-04-24T02:23:23;1.10;;;1.00;;
14241;SDS011;7205;50.864;12.766;2023-04-24T02:25:52;1.63;;;0.97;;
14241;SDS011;7205;50.864;12.766;2023-04-24T02:28:19;1.50;;;1.40;;
14241;SDS011;7205;50.864;12.766;2023-04-24T02:30:46;1.70;;;1.03;;
14241;SDS011;7205;50.864;12.766;2023-04-24T02:33:14;1.00;;;1.00;;
14241;SDS011;7205;50.864;12.766;2023-04-24T02:35:41;1.10;;;1.03;;
14241;SDS011;7205;50.864;12.766;2023-04-24T02:38:07;1.30;;;0.97;;
14241;SDS011;7205;50.864;12.766;2023-04-24T02:40:35;1.10;;;0.77;;
14241;SDS011;7205;50.864;12.766;2023-04-24T02:43:02;1.13;;;1.00;;
14241;SDS011;7205;50.864;12.766;2023-04-24T02:45:29;1.73;;;0.80;;
14241;SDS011;7205;50.864;12.766;2023-04-24T02:47:55;0.90;;;0.90;;
14241;SDS011;7205;50.864;12.766;2023-04-24T02:50:24;1.07;;;0.87;;
14241;SDS011;7205;50.864;12.766;2023-04-24T02:52:50;1.53;;;0.80;;
14241;SDS011;7205;50.864;12.766;2023-04-24T02:55:17;1.63;;;0.83;;
14241;SDS011;7205;50.864;12.766;2023-04-24T02:57:44;0.90;;;0.90;;
14241;SDS011;7205;50.864;12.766;2023-04-24T03:00:11;1.20;;;1.20;;
14241;SDS011;7205;50.864;12.766;2023-04-24T03:02:39;1.00;;;1.00;;
14241;SDS011;7205;50.864;12.766;2023-04-24T03:05:06;1.03;;;1.03;;
14241;SDS011;7205;50.864;12.766;2023-04-24T03:07:35;2.20;;;2.03;;
14241;SDS011;7205;50.864;12.766;2023-04-24T03:10:02;1.40;;;1.30;;
14241;SDS011;7205;50.864;12.766;2023-04-24T03:12:30;2.17;;;2.00;;
14241;SDS011;7205;50.864;12.766;2023-04-24T03:14:56;2.60;;;2.40;;
14241;SDS011;7205;50.864;12.766;2023-04-24T03:17:23;1.73;;;1.63;;
14241;SDS011;7205;50.864;12.766;2023-04-24T03:19:50;1.63;;;1.50;;
14241;SDS011;7205;50.864;12.766;2023-04-24T03:22:17;1.20;;;1.20;;
14241;SDS011;7205;50.864;12.766;2023-04-24T03:24:45;1.70;;;1.60;;
14241;SDS011;7205;50.864;12.766;2023-04-24T03:27:15;2.30;;;1.37;;
14241;SDS011;7205;50.864;12.766;2023-04-24T03:29:52;1.70;;;1.60;;
14241;SDS011;7205;50.864;12.766;2023-04-24T03:32:23;2.50;;;2.30;;
14241;SDS011;7205;50.864;12.766;2023-04-24T03:34:51;1.80;;;1.70;;
14241;SDS011;7205;50.864;12.766;2023-04-24T03:37:19;3.10;;;2.27;;
14241;SDS011;7205;50.864;12.766;2023-04-24T03:40:10;4.27;;;3.87;;
14241;SDS011;7205;50.864;12.766;2023-04-24T03:42:37;1.77;;;1.67;;
14241;SDS011;7205;50.864;12.766;2023-04-24T03:45:05;2.77;;;2.57;;
14241;SDS011;7205;50.864;12.766;2023-04-24T03:47:36;3.03;;;1.93;;
14241;SDS011;7205;50.864;12.766;2023-04-24T03:50:04;1.87;;;1.77;;
14241;SDS011;7205;50.864;12.766;2023-04-24T03:52:33;0.97;;;0.97;;
14241;SDS011;7205;50.864;12.766;2023-04-24T03:55:00;2.43;;;2.00;;
14241;SDS011;7205;50.864;12.766;2023-04-24T03:57:32;2.67;;;2.47;;
14241;SDS011;7205;50.864;12.766;2023-04-24T04:00:12;3.83;;;1.63;;
14241;SDS011;7205;50.864;12.766;2023-04-24T04:02:47;2.50;;;2.07;;
14241;SDS011;7205;50.864;12.766;2023-04-24T04:05:13;2.10;;;1.90;;
14241;SDS011;7205;50.864;12.766;2023-04-24T04:07:40;2.83;;;2.57;;
14241;SDS011;7205;50.864;12.766;2023-04-24T04:10:07;2.63;;;2.30;;
14241;SDS011;7205;50.864;12.766;2023-04-24T04:12:37;4.37;;;3.53;;
14241;SDS011;7205;50.864;12.766;2023-04-24T04:15:04;4.13;;;3.83;;
14241;SDS011;7205;50.864;12.766;2023-04-24T04:17:32;2.33;;;2.13;;
14241;SDS011;7205;50.864;12.766;2023-04-24T04:20:04;7.70;;;6.60;;
14241;SDS011;7205;50.864;12.766;2023-04-24T04:22:34;5.07;;;4.07;;
14241;SDS011;7205;50.864;12.766;2023-04-24T04:25:02;2.40;;;2.20;;
14241;SDS011;7205;50.864;12.766;2023-04-24T04:27:32;3.67;;;3.00;;
14241;SDS011;7205;50.864;12.766;2023-04-24T04:30:09;4.87;;;4.47;;
14241;SDS011;7205;50.864;12.766;2023-04-24T04:32:56;2.57;;;2.37;;
14241;SDS011;7205;50.864;12.766;2023-04-24T04:35:23;1.97;;;1.87;;
14241;SDS011;7205;50.864;12.766;2023-04-24T04:37:51;3.10;;;2.90;;
14241;SDS011;7205;50.864;12.766;2023-04-24T04:40:38;3.30;;;2.00;;
14241;SDS011;7205;50.864;12.766;2023-04-24T04:43:06;2.50;;;2.30;;
14241;SDS011;7205;50.864;12.766;2023-04-24T04:45:46;1.43;;;1.23;;
14241;SDS011;7205;50.864;12.766;2023-04-24T04:48:32;1.90;;;1.80;;
14241;SDS011;7205;50.864;12.766;2023-04-24T04:51:01;2.50;;;1.10;;
14241;SDS011;7205;50.864;12.766;2023-04-24T04:53:28;1.80;;;1.70;;
14241;SDS011;7205;50.864;12.766;2023-04-24T04:55:56;3.90;;;3.60;;
14241;SDS011;7205;50.864;12.766;2023-04-24T04:58:27;1.53;;;1.43;;
14241;SDS011;7205;50.864;12.766;2023-04-24T05:00:59;2.77;;;2.43;;
14241;SDS011;7205;50.864;12.766;2023-04-24T05:03:34;1.97;;;1.30;;
14241;SDS011;7205;50.864;12.766;2023-04-24T05:06:07;3.43;;;2.50;;
14241;SDS011;7205;50.864;12.766;2023-04-24T05:08:36;1.67;;;1.20;;
14241;SDS011;7205;50.864;12.766;2023-04-24T05:11:07;2.10;;;1.30;;
14241;SDS011;7205;50.864;12.766;2023-04-24T05:13:35;2.83;;;1.10;;
14241;SDS011;7205;50.864;12.766;2023-04-24T05:16:06;3.03;;;1.63;;
14241;SDS011;7205;50.864;12.766;2023-04-24T05:18:34;2.90;;;2.60;;
14241;SDS011;7205;50.864;12.766;2023-04-24T05:21:01;2.83;;;2.63;;
14241;SDS011;7205;50.864;12.766;2023-04-24T05:23:28;1.13;;;1.07;;
14241;SDS011;7205;50.864;12.766;2023-04-24T05:25:56;2.80;;;1.90;;
14241;SDS011;7205;50.864;12.766;2023-04-24T05:28:22;1.10;;;1.00;;
14241;SDS011;7205;50.864;12.766;2023-04-24T05:31:02;1.80;;;1.70;;
14241;SDS011;7205;50.864;12.766;2023-04-24T05:33:31;2.30;;;2.10;;
14241;SDS011;7205;50.864;12.766;2023-04-24T05:35:58;2.10;;;2.00;;
14241;SDS011;7205;50.864;12.766;2023-04-24T05:38:25;1.43;;;1.33;;
14241;SDS011;7205;50.864;12.766;2023-04-24T05:40:52;1.20;;;1.10;;
14241;SDS011;7205;50.864;12.766;2023-04-24T05:43:18;1.23;;;1.20;;
14241;SDS011;7205;50.864;12.766;2023-04-24T05:45:45;1.40;;;1.23;;
14241;SDS011;7205;50.864;12.766;2023-04-24T05:48:12;2.43;;;2.10;;
14241;SDS011;7205;50.864;12.766;2023-04-24T05:50:40;1.30;;;1.20;;
14241;SDS011;7205;50.864;12.766;2023-04-24T05:53:08;2.93;;;1.30;;
14241;SDS011;7205;50.864;12.766;2023-04-24T05:55:36;3.73;;;1.50;;
14241;SDS011;7205;50.864;12.766;2023-04-24T05:58:03;13.63;;;3.43;;
14241;SDS011;7205;50.864;12.766;2023-04-24T06:00:32;50.43;;;11.90;;
14241;SDS011;7205;50.864;12.766;2023-04-24T06:03:04;21.90;;;5.23;;
14241;SDS011;7205;50.864;12.766;2023-04-24T06:05:31;21.17;;;4.63;;
14241;SDS011;7205;50.864;12.766;2023-04-24T06:07:59;9.30;;;2.37;;
14241;SDS011;7205;50.864;12.766;2023-04-24T06:10:31;9.30;;;3.10;;
14241;SDS011;7205;50.864;12.766;2023-04-24T06:12:59;1.00;;;1.00;;
14241;SDS011;7205;50.864;12.766;2023-04-24T06:15:28;0.90;;;0.90;;
14241;SDS011;7205;50.864;12.766;2023-04-24T06:17:59;1.00;;;1.00;;
14241;SDS011;7205;50.864;12.766;2023-04-24T06:20:26;1.70;;;0.70;;
14241;SDS011;7205;50.864;12.766;2023-04-24T06:22:56;1.27;;;0.83;;
14241;SDS011;7205;50.864;12.766;2023-04-24T06:25:25;3.67;;;1.17;;
14241;SDS011;7205;50.864;12.766;2023-04-24T06:27:53;1.27;;;0.83;;
14241;SDS011;7205;50.864;12.766;2023-04-24T06:30:20;1.40;;;1.00;;
14241;SDS011;7205;50.864;12.766;2023-04-24T06:32:46;2.93;;;0.80;;
14241;SDS011;7205;50.864;12.766;2023-04-24T06:35:14;3.00;;;1.90;;
14241;SDS011;7205;50.864;12.766;2023-04-24T06:37:41;2.00;;;1.27;;
14241;SDS011;7205;50.864;12.766;2023-04-24T06:40:09;1.73;;;1.03;;
14241;SDS011;7205;50.864;12.766;2023-04-24T06:42:38;1.20;;;0.90;;
14241;SDS011;7205;50.864;12.766;2023-04-24T06:45:07;1.23;;;1.03;;
14241;SDS011;7205;50.864;12.766;2023-04-24T06:47:35;0.87;;;0.87;;
14241;SDS011;7205;50.864;12.766;2023-04-24T06:50:01;1.10;;;1.00;;
14241;SDS011;7205;50.864;12.766;2023-04-24T06:52:28;0.97;;;0.90;;
14241;SDS011;7205;50.864;12.766;2023-04-24T06:54:59;1.20;;;1.00;;
14241;SDS011;7205;50.864;12.766;2023-04-24T06:57:27;0.90;;;0.80;;
14241;SDS011;7205;50.864;12.766;2023-04-24T06:59:55;2.37;;;0.80;;
14241;SDS011;7205;50.864;12.766;2023-04-24T07:02:22;1.13;;;0.90;;
14241;SDS011;7205;50.864;12.766;2023-04-24T07:04:49;1.30;;;0.77;;
14241;SDS011;7205;50.864;12.766;2023-04-24T07:07:17;2.90;;;1.10;;
14241;SDS011;7205;50.864;12.766;2023-04-24T07:09:44;1.17;;;1.17;;
14241;SDS011;7205;50.864;12.766;2023-04-24T07:12:11;1.23;;;1.00;;
14241;SDS011;7205;50.864;12.766;2023-04-24T07:14:38;1.53;;;1.10;;
14241;SDS011;7205;50.864;12.766;2023-04-24T07:17:07;3.03;;;0.90;;
14241;SDS011;7205;50.864;12.766;2023-04-24T07:19:34;3.73;;;1.20;;
14241;SDS011;7205;50.864;12.766;2023-04-24T07:22:01;1.87;;;1.10;;
14241;SDS011;7205;50.864;12.766;2023-04-24T07:24:28;1.10;;;0.87;;
14241;SDS011;7205;50.864;12.766;2023-04-24T07:26:57;1.13;;;1.03;;
14241;SDS011;7205;50.864;12.766;2023-04-24T07:29:24;0.80;;;0.80;;
14241;SDS011;7205;50.864;12.766;2023-04-24T07:31:51;5.70;;;0.90;;
14241;SDS011;7205;50.864;12.766;2023-04-24T07:34:20;0.87;;;0.87;;
14241;SDS011;7205;50.864;12.766;2023-04-24T07:36:47;0.80;;;0.80;;
14241;SDS011;7205;50.864;12.766;2023-04-24T07:39:14;1.20;;;1.10;;
14241;SDS011;7205;50.864;12.766;2023-04-24T07:41:41;1.93;;;1.13;;
14241;SDS011;7205;50.864;12.766;2023-04-24T07:44:08;1.17;;;0.70;;
14241;SDS011;7205;50.864;12.766;2023-04-24T07:46:35;2.43;;;0.90;;
14241;SDS011;7205;50.864;12.766;2023-04-24T07:49:01;1.00;;;0.90;;
14241;SDS011;7205;50.864;12.766;2023-04-24T07:51:30;1.50;;;0.80;;
14241;SDS011;7205;50.864;12.766;2023-04-24T07:54:03;0.93;;;0.90;;
14241;SDS011;7205;50.864;12.766;2023-04-24T07:56:30;3.10;;;1.27;;
14241;SDS011;7205;50.864;12.766;2023-04-24T07:58:57;0.60;;;0.60;;
14241;SDS011;7205;50.864;12.766;2023-04-24T08:01:24;0.70;;;0.70;;
14241;SDS011;7205;50.864;12.766;2023-04-24T08:03:51;0.90;;;0.90;;
14241;SDS011;7205;50.864;12.766;2023-04-24T08:06:17;1.13;;;0.83;;
14241;SDS011;7205;50.864;12.766;2023-04-24T08:08:45;0.63;;;0.63;;
14241;SDS011;7205;50.864;12.766;2023-04-24T08:11:12;1.63;;;1.53;;
14241;SDS011;7205;50.864;12.766;2023-04-24T08:13:39;2.43;;;2.23;;
14241;SDS011;7205;50.864;12.766;2023-04-24T08:16:06;7.93;;;7.13;;
14241;SDS011;7205;50.864;12.766;2023-04-24T08:18:33;1.37;;;1.20;;
14241;SDS011;7205;50.864;12.766;2023-04-24T08:21:01;0.77;;;0.77;;
14241;SDS011;7205;50.864;12.766;2023-04-24T08:23:28;2.00;;;0.90;;
14241;SDS011;7205;50.864;12.766;2023-04-24T08:25:56;0.87;;;0.80;;
14241;SDS011;7205;50.864;12.766;2023-04-24T08:28:23;2.40;;;0.90;;
14241;SDS011;7205;50.864;12.766;2023-04-24T08:30:51;0.97;;;0.80;;
14241;SDS011;7205;50.864;12.766;2023-04-24T08:33:19;3.40;;;2.93;;
14241;SDS011;7205;50.864;12.766;2023-04-24T08:35:46;1.70;;;0.83;;
14241;SDS011;7205;50.864;12.766;2023-04-24T08:38:13;5.17;;;4.23;;
14241;SDS011;7205;50.864;12.766;2023-04-24T08:40:42;2.63;;;2.43;;
14241;SDS011;7205;50.864;12.766;2023-04-24T08:43:13;2.43;;;0.87;;
14241;SDS011;7205;50.864;12.766;2023-04-24T08:45:41;1.23;;;0.90;;
14241;SDS011;7205;50.864;12.766;2023-04-24T08:48:07;2.03;;;1.00;;
14241;SDS011;7205;50.864;12.766;2023-04-24T08:50:35;2.87;;;0.80;;
14241;SDS011;7205;50.864;12.766;2023-04-24T08:53:03;5.20;;;1.20;;
14241;SDS011;7205;50.864;12.766;2023-04-24T08:55:32;1.23;;;0.70;;
14241;SDS011;7205;50.864;12.766;2023-04-24T08:58:01;1.63;;;1.47;;
14241;SDS011;7205;50.864;12.766;2023-04-24T09:00:32;1.67;;;1.13;;
14241;SDS011;7205;50.864;12.766;2023-04-24T09:03:00;1.23;;;0.80;;
14241;SDS011;7205;50.864;12.766;2023-04-24T09:05:28;1.40;;;1.00;;
14241;SDS011;7205;50.864;12.766;2023-04-24T09:07:56;0.90;;;0.87;;
14241;SDS011;7205;50.864;12.766;2023-04-24T09:10:24;1.80;;;0.53;;
14241;SDS011;7205;50.864;12.766;2023-04-24T09:12:52;1.23;;;0.60;;
14241;SDS011;7205;50.864;12.766;2023-04-24T09:15:21;2.47;;;0.70;;
14241;SDS011;7205;50.864;12.766;2023-04-24T09:17:50;1.23;;;0.70;;
14241;SDS011;7205;50.864;12.766;2023-04-24T09:20:17;1.47;;;0.70;;
14241;SDS011;7205;50.864;12.766;2023-04-24T09:22:45;0.73;;;0.70;;
14241;SDS011;7205;50.864;12.766;2023-04-24T09:25:12;2.60;;;0.80;;
14241;SDS011;7205;50.864;12.766;2023-04-24T09:27:42;0.70;;;0.70;;
14241;SDS011;7205;50.864;12.766;2023-04-24T09:30:11;0.93;;;0.80;;
14241;SDS011;7205;50.864;12.766;2023-04-24T09:32:39;0.40;;;0.40;;
14241;SDS011;7205;50.864;12.766;2023-04-24T09:35:09;1.23;;;0.63;;
14241;SDS011;7205;50.864;12.766;2023-04-24T09:37:38;1.27;;;1.10;;
14241;SDS011;7205;50.864;12.766;2023-04-24T09:40:14;4.23;;;1.53;;
14241;SDS011;7205;50.864;12.766;2023-04-24T09:42:45;1.40;;;1.30;;
14241;SDS011;7205;50.864;12.766;2023-04-24T09:45:13;1.87;;;0.83;;
14241;SDS011;7205;50.864;12.766;2023-04-24T09:47:40;1.37;;;0.90;;
14241;SDS011;7205;50.864;12.766;2023-04-24T09:50:13;0.90;;;0.90;;
14241;SDS011;7205;50.864;12.766;2023-04-24T09:52:42;0.60;;;0.50;;
14241;SDS011;7205;50.864;12.766;2023-04-24T09:55:11;0.60;;;0.50;;
14241;SDS011;7205;50.864;12.766;2023-04-24T09:57:48;1.70;;;0.67;;
14241;SDS011;7205;50.864;12.766;2023-04-24T10:00:21;0.40;;;0.40;;
14241;SDS011;7205;50.864;12.766;2023-04-24T10:02:54;0.57;;;0.57;;
14241;SDS011;7205;50.864;12.766;2023-04-24T10:05:28;0.93;;;0.50;;
14241;SDS011;7205;50.864;12.766;2023-04-24T10:07:56;0.40;;;0.40;;
14241;SDS011;7205;50.864;12.766;2023-04-24T10:10:24;1.23;;;0.60;;
14241;SDS011;7205;50.864;12.766;2023-04-24T10:12:52;0.40;;;0.40;;
14241;SDS011;7205;50.864;12.766;2023-04-24T10:15:19;0.40;;;0.37;;
14241;SDS011;7205;50.864;12.766;2023-04-24T10:17:47;0.53;;;0.53;;
14241;SDS011;7205;50.864;12.766;2023-04-24T10:20:18;0.90;;;0.90;;
14241;SDS011;7205;50.864;12.766;2023-04-24T10:22:51;0.70;;;0.67;;
14241;SDS011;7205;50.864;12.766;2023-04-24T10:25:19;0.90;;;0.63;;
14241;SDS011;7205;50.864;12.766;2023-04-24T10:27:48;1.97;;;0.60;;
14241;SDS011;7205;50.864;12.766;2023-04-24T10:30:15;2.00;;;0.60;;
14241;SDS011;7205;50.864;12.766;2023-04-24T10:32:43;0.90;;;0.50;;
14241;SDS011;7205;50.864;12.766;2023-04-24T10:35:11;0.40;;;0.40;;
14241;SDS011;7205;50.864;12.766;2023-04-24T10:37:42;0.70;;;0.50;;
14241;SDS011;7205;50.864;12.766;2023-04-24T10:40:16;1.10;;;1.00;;
14241;SDS011;7205;50.864;12.766;2023-04-24T10:42:46;1.10;;;0.70;;
14241;SDS011;7205;50.864;12.766;2023-04-24T10:45:17;0.87;;;0.60;;
14241;SDS011;7205;50.864;12.766;2023-04-24T10:47:52;0.40;;;0.40;;
14241;SDS011;7205;50.864;12.766;2023-04-24T10:50:27;0.60;;;0.60;;
14241;SDS011;7205;50.864;12.766;2023-04-24T10:53:04;0.40;;;0.40;;
14241;SDS011;7205;50.864;12.766;2023-04-24T10:55:44;2.17;;;0.50;;
14241;SDS011;7205;50.864;12.766;2023-04-24T10:58:12;1.73;;;0.40;;
14241;SDS011;7205;50.864;12.766;2023-04-24T11:00:42;0.80;;;0.63;;
14241;SDS011;7205;50.864;12.766;2023-04-24T11:03:23;0.50;;;0.50;;
14241;SDS011;7205;50.864;12.766;2023-04-24T11:05:54;0.40;;;0.40;;
14241;SDS011;7205;50.864;12.766;2023-04-24T11:08:23;0.70;;;0.60;;
14241;SDS011;7205;50.864;12.766;2023-04-24T11:10:58;0.97;;;0.73;;
14241;SDS011;7205;50.864;12.766;2023-04-24T11:13:27;1.40;;;0.60;;
14241;SDS011;7205;50.864;12.766;2023-04-24T11:16:15;1.83;;;0.50;;
14241;SDS011;7205;50.864;12.766;2023-04-24T11:18:50;0.50;;;0.50;;
14241;SDS011;7205;50.864;12.766;2023-04-24T11:21:19;0.50;;;0.50;;
14241;SDS011;7205;50.864;12.766;2023-04-24T11:23:47;0.40;;;0.40;;
14241;SDS011;7205;50.864;12.766;2023-04-24T11:26:18;0.43;;;0.40;;
14241;SDS011;7205;50.864;12.766;2023-04-24T11:28:50;1.00;;;0.60;;
14241;SDS011;7205;50.864;12.766;2023-04-24T11:31:36;0.60;;;0.60;;
14241;SDS011;7205;50.864;12.766;2023-04-24T11:34:08;0.50;;;0.50;;
14241;SDS011;7205;50.864;12.766;2023-04-24T11:36:35;0.50;;;0.50;;
14241;SDS011;7205;50.864;12.766;2023-04-24T11:39:03;0.63;;;0.63;;
14241;SDS011;7205;50.864;12.766;2023-04-24T11:41:31;0.50;;;0.50;;
14241;SDS011;7205;50.864;12.766;2023-04-24T11:43:59;1.87;;;0.80;;
14241;SDS011;7205;50.864;12.766;2023-04-24T11:46:27;0.63;;;0.50;;
14241;SDS011;7205;50.864;12.766;2023-04-24T11:48:56;2.40;;;0.50;;
14241;SDS011;7205;50.864;12.766;2023-04-24T11:51:25;1.50;;;0.50;;
14241;SDS011;7205;50.864;12.766;2023-04-24T11:53:52;0.97;;;0.70;;
14241;SDS011;7205;50.864;12.766;2023-04-24T11:56:20;1.37;;;0.70;;
14241;SDS011;7205;50.864;12.766;2023-04-24T11:58:51;3.70;;;0.77;;
14241;SDS011;7205;50.864;12.766;2023-04-24T12:01:18;2.07;;;1.00;;
14241;SDS011;7205;50.864;12.766;2023-04-24T12:03:47;3.03;;;1.30;;
14241;SDS011;7205;50.864;12.766;2023-04-24T12:06:16;1.60;;;1.10;;
14241;SDS011;7205;50.864;12.766;2023-04-24T12:08:45;1.00;;;1.00;;
14241;SDS011;7205;50.864;12.766;2023-04-24T12:11:14;1.87;;;1.20;;
14241;SDS011;7205;50.864;12.766;2023-04-24T12:13:42;1.30;;;1.30;;
14241;SDS011;7205;50.864;12.766;2023-04-24T12:16:11;3.10;;;1.53;;
14241;SDS011;7205;50.864;12.766;2023-04-24T12:18:41;1.00;;;1.00;;
14241;SDS011;7205;50.864;12.766;2023-04-24T12:21:18;1.20;;;1.10;;
14241;SDS011;7205;50.864;12.766;2023-04-24T12:23:46;2.00;;;1.20;;
14241;SDS011;7205;50.864;12.766;2023-04-24T12:26:15;2.50;;;0.70;;
14241;SDS011;7205;50.864;12.766;2023-04-24T12:28:43;0.70;;;0.70;;
14241;SDS011;7205;50.864;12.766;2023-04-24T12:31:14;1.30;;;0.80;;
14241;SDS011;7205;50.864;12.766;2023-04-24T12:33:43;0.80;;;0.80;;
14241;SDS011;7205;50.864;12.766;2023-04-24T12:36:12;1.53;;;0.70;;
14241;SDS011;7205;50.864;12.766;2023-04-24T12:38:39;0.87;;;0.87;;
14241;SDS011;7205;50.864;12.766;2023-04-24T12:41:12;0.80;;;0.80;;
14241;SDS011;7205;50.864;12.766;2023-04-24T12:43:50;0.70;;;0.70;;
14241;SDS011;7205;50.864;12.766;2023-04-24T12:46:20;0.80;;;0.80;;
14241;SDS011;7205;50.864;12.766;2023-04-24T12:48:46;0.60;;;0.60;;
14241;SDS011;7205;50.864;12.766;2023-04-24T12:51:13;2.07;;;1.00;;
14241;SDS011;7205;50.864;12.766;2023-04-24T12:53:40;2.53;;;0.80;;
14241;SDS011;7205;50.864;12.766;2023-04-24T12:56:07;1.83;;;0.80;;
14241;SDS011;7205;50.864;12.766;2023-04-24T12:58:34;1.03;;;0.80;;
14241;SDS011;7205;50.864;12.766;2023-04-24T13:01:01;0.70;;;0.70;;
14241;SDS011;7205;50.864;12.766;2023-04-24T13:03:29;1.57;;;0.60;;
14241;SDS011;7205;50.864;12.766;2023-04-24T13:06:18;4.67;;;0.80;;
14241;SDS011;7205;50.864;12.766;2023-04-24T13:10:17;4.53;;;0.80;;
14241;SDS011;7205;50.864;12.766;2023-04-24T13:13:06;0.90;;;0.70;;
14241;SDS011;7205;50.864;12.766;2023-04-24T13:15:57;1.80;;;1.03;;
14241;SDS011;7205;50.864;12.766;2023-04-24T13:18:24;1.00;;;1.00;;
14241;SDS011;7205;50.864;12.766;2023-04-24T13:23:56;1.97;;;1.80;;
14241;SDS011;7205;50.864;12.766;2023-04-24T13:26:41;2.47;;;1.33;;
14241;SDS011;7205;50.864;12.766;2023-04-24T13:29:07;1.67;;;1.10;;
14241;SDS011;7205;50.864;12.766;2023-04-24T13:31:34;2.63;;;2.43;;
14241;SDS011;7205;50.864;12.766;2023-04-24T13:34:01;2.73;;;2.53;;
14241;SDS011;7205;50.864;12.766;2023-04-24T13:36:30;1.77;;;1.67;;
14241;SDS011;7205;50.864;12.766;2023-04-24T13:38:57;1.33;;;1.30;;
14241;SDS011;7205;50.864;12.766;2023-04-24T13:41:24;1.60;;;0.90;;
14241;SDS011;7205;50.864;12.766;2023-04-24T13:43:50;3.33;;;0.90;;
14241;SDS011;7205;50.864;12.766;2023-04-24T13:46:17;1.00;;;0.90;;
14241;SDS011;7205;50.864;12.766;2023-04-24T13:48:44;1.60;;;0.60;;
14241;SDS011;7205;50.864;12.766;2023-04-24T13:51:11;0.80;;;0.80;;
14241;SDS011;7205;50.864;12.766;2023-04-24T13:53:39;0.80;;;0.80;;
14241;SDS011;7205;50.864;12.766;2023-04-24T13:56:06;4.47;;;0.90;;
14241;SDS011;7205;50.864;12.766;2023-04-24T13:58:34;3.67;;;0.80;;
14241;SDS011;7205;50.864;12.766;2023-04-24T14:04:25;2.10;;;0.80;;
14241;SDS011;7205;50.864;12.766;2023-04-24T14:17:21;0.73;;;0.60;;
14241;SDS011;7205;50.864;12.766;2023-04-24T15:05:53;0.90;;;0.90;;
14241;SDS011;7205;50.864;12.766;2023-04-24T15:08:20;1.90;;;0.70;;
14241;SDS011;7205;50.864;12.766;2023-04-24T15:10:47;0.70;;;0.70;;
14241;SDS011;7205;50.864;12.766;2023-04-24T15:13:15;1.90;;;0.80;;
14241;SDS011;7205;50.864;12.766;2023-04-24T15:15:42;0.63;;;0.60;;
14241;SDS011;7205;50.864;12.766;2023-04-24T15:18:09;1.50;;;0.70;;
14241;SDS011;7205;50.864;12.766;2023-04-24T16:29:37;0.70;;;0.70;;
14241;SDS011;7205;50.864;12.766;2023-04-24T16:32:04;1.10;;;0.60;;
14241;SDS011;7205;50.864;12.766;2023-04-24T16:34:32;0.50;;;0.50;;
14241;SDS011;7205;50.864;12.766;2023-04-24T16:37:01;0.40;;;0.40;;
14241;SDS011;7205;50.864;12.766;2023-04-24T16:39:29;0.52;;;0.50;;
14241;SDS011;7205;50.864;12.766;2023-04-24T16:41:56;0.73;;;0.40;;
14241;SDS011;7205;50.864;12.766;2023-04-24T16:44:24;1.00;;;0.60;;
14241;SDS011;7205;50.864;12.766;2023-04-24T16:46:53;0.70;;;0.70;;
14241;SDS011;7205;50.864;12.766;2023-04-24T16:49:24;1.00;;;1.00;;
14241;SDS011;7205;50.864;12.766;2023-04-24T16:51:59;1.10;;;1.00;;
14241;SDS011;7205;50.864;12.766;2023-04-24T16:54:31;1.60;;;0.67;;
14241;SDS011;7205;50.864;12.766;2023-04-24T17:40:57;0.60;;;0.60;;
14241;SDS011;7205;50.864;12.766;2023-04-24T17:48:12;0.53;;;0.53;;
14241;SDS011;7205;50.864;12.766;2023-04-24T19:30:37;1.87;;;1.77;;
14241;SDS011;7205;50.864;12.766;2023-04-24T19:33:04;1.60;;;1.27;;
14241;SDS011;7205;50.864;12.766;2023-04-24T19:35:31;1.40;;;1.30;;
14241;SDS011;7205;50.864;12.766;2023-04-24T19:37:59;1.10;;;1.10;;
14241;SDS011;7205;50.864;12.766;2023-04-24T19:40:26;1.27;;;1.17;;